Time;durP1;ratioP1;P1;durP2;ratioP2;P2;SDS_P1;SDS_P2;PMS_P1;PMS_P2;Temp;Humidity;BMP_temperature;BMP_pressure;BME280_temperature;BME280_humidity;BME280_pressure;Samples;Min_cycle;Max_cycle;Signal;HPM_P1;HPM_P2
2023/07/15 00:01:04;;;;;;;3.83;2.00;;;;;;;21.67;54.70;98156.31;4921649;28;20246;-64
2023/07/15 00:03:32;;;;;;;3.10;2.00;;;;;;;21.78;54.47;98144.03;4947919;28;20984;-64
2023/07/15 00:05:58;;;;;;;3.50;2.00;;;;;;;21.87;52.96;98149.81;4946712;28;20321;-64
2023/07/15 00:08:25;;;;;;;3.13;2.00;;;;;;;22.03;52.54;98150.09;4942457;28;20242;-64
2023/07/15 00:10:52;;;;;;;2.73;2.10;;;;;;;22.20;51.46;98152.78;4930475;29;20830;-64
2023/07/15 00:13:19;;;;;;;2.23;1.70;;;;;;;22.37;51.11;98143.00;4944910;28;20243;-64
2023/07/15 00:15:50;;;;;;;2.77;2.07;;;;;;;22.33;51.27;98152.50;4943592;29;20233;-64
2023/07/15 00:18:17;;;;;;;3.67;1.93;;;;;;;22.27;51.90;98146.25;4940036;29;20245;-64
2023/07/15 00:20:45;;;;;;;4.33;2.00;;;;;;;22.26;51.69;98142.00;4945625;29;20240;-64
2023/07/15 00:23:21;;;;;;;5.73;1.77;;;;;;;22.17;52.23;98138.13;4942750;28;20614;-64
2023/07/15 00:25:48;;;;;;;3.63;1.77;;;;;;;22.05;53.39;98138.16;4938014;29;20245;-64
2023/07/15 00:28:15;;;;;;;4.27;2.00;;;;;;;21.88;55.15;98129.34;4942858;28;20233;-64
2023/07/15 00:30:41;;;;;;;2.50;1.67;;;;;;;21.71;56.82;98130.09;4933650;28;20230;-64
2023/07/15 00:33:14;;;;;;;2.53;1.90;;;;;;;21.54;57.62;98124.69;4942398;28;20230;-64
2023/07/15 00:35:42;;;;;;;3.27;1.80;;;;;;;21.33;58.27;98124.25;4946888;28;20264;-65
2023/07/15 00:38:11;;;;;;;4.40;1.60;;;;;;;21.22;57.76;98123.25;4943547;28;20227;-65
2023/07/15 00:40:40;;;;;;;2.10;1.50;;;;;;;21.12;59.54;98124.88;4925551;29;20305;-65
2023/07/15 00:43:44;;;;;;;1.83;1.53;;;;;;;20.94;60.09;98126.63;4922543;29;20245;-65
2023/07/15 00:46:37;;;;;;;2.40;1.80;;;;;;;20.81;60.46;98127.63;4899086;29;21734;-64
2023/07/15 00:49:09;;;;;;;2.83;1.90;;;;;;;20.71;61.72;98119.41;4921462;29;20323;-64
2023/07/15 00:51:39;;;;;;;2.90;1.77;;;;;;;20.65;61.19;98121.97;4903923;29;20284;-64
2023/07/15 00:54:09;;;;;;;3.37;1.90;;;;;;;20.53;61.22;98126.44;4922167;29;20711;-64
2023/07/15 00:56:37;;;;;;;2.53;1.90;;;;;;;20.53;61.89;98130.91;4929437;28;20230;-64
2023/07/15 00:59:05;;;;;;;2.93;2.07;;;;;;;20.41;61.90;98126.41;4942528;28;20606;-64
2023/07/15 01:01:34;;;;;;;2.53;1.67;;;;;;;20.35;62.37;98124.66;4943266;28;20765;-64
2023/07/15 01:04:01;;;;;;;4.20;1.90;;;;;;;20.30;61.81;98124.53;4941400;29;20235;-64
2023/07/15 01:06:28;;;;;;;2.92;1.70;;;;;;;20.37;60.29;98119.13;4932837;29;20451;-64
2023/07/15 01:08:54;;;;;;;1.63;1.30;;;;;;;20.41;60.60;98126.41;4917276;29;20241;-64
2023/07/15 01:11:21;;;;;;;1.93;1.50;;;;;;;20.39;60.53;98122.38;4924049;29;20297;-64
2023/07/15 01:13:49;;;;;;;1.97;1.50;;;;;;;20.35;60.18;98125.47;4910362;29;20711;-64
2023/07/15 01:16:16;;;;;;;3.23;1.60;;;;;;;20.42;58.49;98121.91;4935040;29;20747;-64
2023/07/15 01:18:44;;;;;;;2.07;1.33;;;;;;;20.60;56.27;98123.66;4942859;28;20602;-64
2023/07/15 01:21:11;;;;;;;2.00;1.53;;;;;;;20.71;56.22;98122.88;4940901;29;20637;-64
2023/07/15 01:23:39;;;;;;;1.90;1.30;;;;;;;20.73;56.32;98122.63;4935746;29;20253;-64
2023/07/15 01:26:06;;;;;;;4.47;1.33;;;;;;;20.71;56.46;98128.19;4925886;29;20714;-64
2023/07/15 01:28:33;;;;;;;1.77;1.30;;;;;;;20.68;57.47;98133.94;4917630;29;20231;-64
2023/07/15 01:30:59;;;;;;;1.83;1.40;;;;;;;20.63;57.86;98132.00;4926535;29;20237;-64
2023/07/15 01:33:26;;;;;;;3.03;1.30;;;;;;;20.64;57.10;98130.13;4926693;29;20239;-64
2023/07/15 01:35:52;;;;;;;1.93;1.40;;;;;;;20.58;58.05;98121.25;4942554;28;20317;-64
2023/07/15 01:38:19;;;;;;;5.27;1.40;;;;;;;20.54;59.25;98125.41;4927306;29;20256;-64
2023/07/15 01:40:47;;;;;;;2.00;1.33;;;;;;;20.47;59.02;98120.19;4927528;29;20657;-64
2023/07/15 01:43:14;;;;;;;1.40;1.20;;;;;;;20.42;59.30;98121.91;4926949;29;20241;-64
2023/07/15 01:45:41;;;;;;;2.80;1.50;;;;;;;20.34;59.74;98117.72;4923091;29;20246;-64
2023/07/15 01:48:08;;;;;;;1.97;1.40;;;;;;;20.37;58.38;98114.63;4920012;28;20241;-64
2023/07/15 01:50:35;;;;;;;1.63;1.20;;;;;;;20.39;57.70;98117.88;4926827;29;20318;-64
2023/07/15 01:53:02;;;;;;;2.57;1.30;;;;;;;20.40;58.59;98116.03;4916455;28;20252;-64
2023/07/15 01:55:29;;;;;;;1.40;1.30;;;;;;;20.47;57.28;98112.22;4941955;29;20269;-64
2023/07/15 01:58:01;;;;;;;2.37;1.20;;;;;;;20.53;57.95;98113.19;4923454;29;20228;-64
2023/07/15 02:00:28;;;;;;;2.87;1.73;;;;;;;20.50;57.62;98113.63;4943973;29;20242;-64
2023/07/15 02:02:59;;;;;;;2.70;1.30;;;;;;;20.40;58.27;98118.69;4922000;28;20236;-64
2023/07/15 02:05:26;;;;;;;1.90;1.50;;;;;;;20.37;59.20;98113.84;4944847;28;20241;-64
2023/07/15 02:07:59;;;;;;;2.60;1.40;;;;;;;20.33;59.25;98103.69;4936231;29;20699;-64
2023/07/15 02:10:25;;;;;;;3.10;1.53;;;;;;;20.35;60.12;98100.78;4918530;28;20231;-64
2023/07/15 02:12:52;;;;;;;1.47;1.37;;;;;;;20.26;59.22;98100.31;4929223;29;20241;-64
2023/07/15 02:15:20;;;;;;;3.00;1.40;;;;;;;20.21;59.03;98089.59;4924924;29;20236;-64
2023/07/15 02:17:47;;;;;;;4.33;1.50;;;;;;;20.18;58.68;98092.69;4943247;29;20236;-64
2023/07/15 02:20:13;;;;;;;2.20;1.60;;;;;;;20.25;57.17;98090.75;4924974;29;20285;-64
2023/07/15 02:22:41;;;;;;;3.13;1.53;;;;;;;20.39;56.68;98090.56;4926567;29;20236;-64
2023/07/15 02:25:09;;;;;;;2.07;1.40;;;;;;;20.63;55.20;98094.88;4921442;29;20319;-64
2023/07/15 02:27:35;;;;;;;2.40;1.60;;;;;;;20.71;54.48;98088.41;4941150;29;20234;-64
2023/07/15 02:30:04;;;;;;;4.13;1.67;;;;;;;20.71;55.32;98084.94;4924611;29;20602;-65
2023/07/15 02:32:40;;;;;;;3.53;1.70;;;;;;;20.67;54.93;98079.28;4941718;29;20261;-64
2023/07/15 02:35:11;;;;;;;4.57;1.60;;;;;;;20.69;56.33;98073.75;4938933;29;20226;-64
2023/07/15 02:37:39;;;;;;;2.40;1.40;;;;;;;20.64;56.68;98072.63;4941385;29;20289;-64
2023/07/15 02:40:08;;;;;;;2.93;1.60;;;;;;;20.62;57.36;98068.56;4922413;29;20448;-65
2023/07/15 02:42:36;;;;;;;1.70;1.40;;;;;;;20.54;57.39;98063.59;4942768;28;20254;-64
2023/07/15 02:45:06;;;;;;;2.10;1.70;;;;;;;20.47;57.78;98059.22;4940017;28;20234;-65
2023/07/15 02:47:33;;;;;;;2.37;1.60;;;;;;;20.44;57.89;98069.47;4940479;28;20236;-65
2023/07/15 02:50:04;;;;;;;3.77;1.80;;;;;;;20.42;56.84;98066.25;4922511;29;20242;-65
2023/07/15 02:52:32;;;;;;;8.57;1.80;;;;;;;20.40;58.45;98061.16;4943252;28;20227;-65
2023/07/15 02:54:59;;;;;;;4.17;1.60;;;;;;;20.45;57.77;98063.94;4938326;29;20305;-65
2023/07/15 02:57:26;;;;;;;3.33;1.63;;;;;;;20.50;57.17;98064.06;4929679;29;20870;-65
2023/07/15 02:59:53;;;;;;;3.10;1.63;;;;;;;20.64;56.46;98062.00;4919123;29;20323;-65
2023/07/15 03:02:20;;;;;;;2.00;1.50;;;;;;;20.68;54.92;98061.50;4941309;29;20249;-65
2023/07/15 03:04:47;;;;;;;2.20;1.70;;;;;;;20.81;54.92;98063.97;4943534;28;20244;-65
2023/07/15 03:07:16;;;;;;;3.93;1.80;;;;;;;20.86;54.76;98064.09;4927740;29;20332;-65
2023/07/15 03:09:43;;;;;;;2.23;1.53;;;;;;;21.01;53.45;98053.03;4927906;29;20809;-65
2023/07/15 03:12:10;;;;;;;2.80;1.70;;;;;;;21.05;54.01;98056.81;4921990;29;20227;-65
2023/07/15 03:14:37;;;;;;;1.60;1.40;;;;;;;21.10;53.82;98048.16;4926759;29;20630;-65
2023/07/15 03:17:05;;;;;;;3.43;1.70;;;;;;;21.16;51.67;98043.75;4920528;29;20281;-65
2023/07/15 03:19:32;;;;;;;2.57;1.73;;;;;;;21.27;51.70;98044.75;4942529;29;20237;-65
2023/07/15 03:21:59;;;;;;;2.20;1.50;;;;;;;21.26;51.58;98048.47;4941209;29;20230;-65
2023/07/15 03:24:27;;;;;;;2.13;1.70;;;;;;;21.29;50.99;98035.50;4916092;29;20241;-65
2023/07/15 03:26:54;;;;;;;2.23;1.60;;;;;;;21.33;51.69;98035.88;4927555;28;20246;-65
2023/07/15 03:29:22;;;;;;;3.90;1.77;;;;;;;21.36;50.60;98040.69;4947303;29;20754;-65
2023/07/15 03:31:49;;;;;;;2.90;1.70;;;;;;;21.35;51.48;98047.84;5190417;23;20235;-65
2023/07/15 03:34:16;;;;;;;3.00;1.77;;;;;;;21.35;52.34;98049.72;4963644;28;20234;-65
2023/07/15 03:36:43;;;;;;;4.13;1.47;;;;;;;21.29;52.71;98032.06;4958549;28;20246;-65
2023/07/15 03:39:09;;;;;;;2.73;1.70;;;;;;;21.21;52.26;98026.09;4964474;28;20248;-65
2023/07/15 03:41:37;;;;;;;3.23;2.00;;;;;;;21.23;50.15;98029.31;4967294;28;20575;-65
2023/07/15 03:44:03;;;;;;;2.43;1.63;;;;;;;21.26;49.94;98029.88;4964607;28;20240;-65
2023/07/15 03:46:30;;;;;;;3.43;2.07;;;;;;;21.24;52.55;98030.94;4968517;28;20282;-65
2023/07/15 03:48:57;;;;;;;1.60;1.50;;;;;;;21.17;52.29;98027.59;4965958;28;20227;-65
2023/07/15 03:51:24;;;;;;;2.80;1.77;;;;;;;21.16;51.66;98027.84;4968106;28;20242;-65
2023/07/15 03:53:50;;;;;;;2.50;1.77;;;;;;;21.24;51.42;98033.56;4960101;28;20248;-65
2023/07/15 03:56:17;;;;;;;2.37;1.40;;;;;;;21.23;52.04;98041.75;4965825;28;20284;-65
2023/07/15 03:58:45;;;;;;;4.37;1.80;;;;;;;21.19;52.77;98043.28;4968443;28;20310;-65
2023/07/15 04:01:11;;;;;;;2.27;1.80;;;;;;;21.15;52.61;98034.19;4964826;28;20241;-65
2023/07/15 04:03:38;;;;;;;1.80;1.50;;;;;;;21.18;53.23;98041.69;4967803;28;20284;-65
2023/07/15 04:06:04;;;;;;;2.70;2.23;;;;;;;21.16;52.15;98041.13;4965577;28;20240;-65
2023/07/15 04:08:31;;;;;;;2.03;1.67;;;;;;;21.20;52.21;98040.41;4968068;28;20243;-65
2023/07/15 04:10:57;;;;;;;3.83;1.83;;;;;;;21.29;52.62;98040.03;4963118;28;20730;-65
2023/07/15 04:13:24;;;;;;;2.57;1.80;;;;;;;21.33;52.43;98038.53;4967793;28;20254;-65
2023/07/15 04:15:52;;;;;;;4.93;1.80;;;;;;;21.53;52.78;98038.91;4967654;28;20208;-65
2023/07/15 04:18:18;;;;;;;2.93;1.70;;;;;;;21.53;53.67;98040.75;4945590;28;20285;-65
2023/07/15 04:20:45;;;;;;;3.30;1.53;;;;;;;21.36;54.88;98040.69;4948180;28;20236;-65
2023/07/15 04:23:11;;;;;;;2.00;1.70;;;;;;;21.23;55.69;98044.41;4945319;28;20812;-65
2023/07/15 04:25:39;;;;;;;4.03;1.90;;;;;;;21.22;55.85;98043.63;4948877;28;20235;-65
2023/07/15 04:28:06;;;;;;;3.50;1.87;;;;;;;21.14;55.72;98043.19;4955406;28;20287;-65
2023/07/15 04:30:32;;;;;;;2.10;1.70;;;;;;;21.12;55.92;98043.41;4959245;28;20238;-65
2023/07/15 04:33:01;;;;;;;3.60;2.03;;;;;;;21.06;56.88;98047.81;4956710;28;20243;-65
2023/07/15 04:35:27;;;;;;;2.53;1.80;;;;;;;21.04;57.95;98047.25;4967289;28;20228;-65
2023/07/15 04:37:59;;;;;;;2.47;1.87;;;;;;;20.96;57.87;98052.91;4964510;28;20704;-65
2023/07/15 04:40:26;;;;;;;2.73;1.80;;;;;;;20.90;57.79;98051.19;4963549;28;20268;-65
2023/07/15 04:42:52;;;;;;;2.57;2.13;;;;;;;20.82;58.71;98059.50;4956219;28;20266;-65
2023/07/15 04:45:19;;;;;;;6.53;2.43;;;;;;;20.77;58.69;98046.88;4965259;28;20294;-65
2023/07/15 04:47:45;;;;;;;2.83;2.27;;;;;;;20.68;59.82;98038.47;4967669;28;20242;-65
2023/07/15 04:50:13;;;;;;;2.37;2.07;;;;;;;20.63;59.89;98055.09;4965033;28;20916;-65
2023/07/15 04:52:40;;;;;;;4.90;2.00;;;;;;;20.58;60.80;98056.81;4967411;28;20239;-65
2023/07/15 04:55:08;;;;;;;2.47;2.13;;;;;;;20.53;61.87;98051.38;4947009;28;20294;-65
2023/07/15 04:57:35;;;;;;;3.43;2.53;;;;;;;20.47;62.62;98063.72;4947982;28;20235;-65
2023/07/15 05:00:02;;;;;;;4.87;2.47;;;;;;;20.39;64.82;98064.06;4945461;28;20238;-65
2023/07/15 05:02:29;;;;;;;7.23;2.20;;;;;;;20.34;64.69;98067.38;4952660;28;20675;-65
2023/07/15 05:04:56;;;;;;;3.27;2.60;;;;;;;20.34;63.81;98062.91;4963114;28;20237;-65
2023/07/15 05:07:23;;;;;;;2.97;2.40;;;;;;;20.41;61.96;98067.28;4946763;28;20447;-65
2023/07/15 05:09:50;;;;;;;5.03;2.20;;;;;;;20.37;64.32;98058.97;4947699;28;20245;-65
2023/07/15 05:12:17;;;;;;;4.43;2.47;;;;;;;20.43;64.23;98049.31;4944170;28;20250;-65
2023/07/15 05:14:43;;;;;;;2.87;2.50;;;;;;;20.50;64.41;98045.50;4947818;28;20606;-65
2023/07/15 05:17:10;;;;;;;3.93;2.20;;;;;;;20.59;65.43;98043.34;4944241;28;20299;-65
2023/07/15 05:19:36;;;;;;;4.57;2.20;;;;;;;20.82;64.32;98036.41;4944752;28;20237;-65
2023/07/15 05:22:04;;;;;;;3.87;2.40;;;;;;;21.00;64.19;98032.84;4944053;28;20238;-65
2023/07/15 05:24:32;;;;;;;2.93;2.40;;;;;;;21.17;63.18;98035.56;4947348;28;20324;-65
2023/07/15 05:26:58;;;;;;;3.93;2.40;;;;;;;21.30;64.95;98031.03;4944889;28;20294;-65
2023/07/15 05:29:25;;;;;;;3.03;2.17;;;;;;;21.36;64.41;98022.91;4934682;28;20237;-65
2023/07/15 05:31:52;;;;;;;5.77;2.20;;;;;;;21.29;66.05;98011.63;4947517;28;20313;-65
2023/07/15 05:34:19;;;;;;;2.67;2.00;;;;;;;21.33;66.15;98011.97;4944749;28;20243;-65
2023/07/15 05:36:46;;;;;;;3.87;2.47;;;;;;;21.34;66.02;98016.25;4946413;28;20228;-65
2023/07/15 05:39:13;;;;;;;3.43;2.07;;;;;;;21.39;65.48;98019.00;4944481;28;20240;-65
2023/07/15 05:41:41;;;;;;;3.17;2.00;;;;;;;21.47;66.59;98008.00;4946126;28;20771;-65
2023/07/15 05:44:08;;;;;;;3.47;2.03;;;;;;;21.64;64.51;98008.06;4943611;28;20232;-65
2023/07/15 05:46:35;;;;;;;3.53;2.03;;;;;;;21.75;62.87;98005.59;4946364;28;20238;-65
2023/07/15 05:49:04;;;;;;;3.90;2.07;;;;;;;21.91;62.40;98001.34;4943589;28;20235;-65
2023/07/15 05:51:30;;;;;;;3.40;2.37;;;;;;;22.04;61.59;97994.91;4946566;28;20248;-65
2023/07/15 05:53:57;;;;;;;2.43;2.00;;;;;;;22.23;61.22;97998.94;4943844;28;20233;-65
2023/07/15 05:56:24;;;;;;;3.33;2.27;;;;;;;22.44;61.99;98009.91;4946291;28;20282;-65
2023/07/15 05:58:52;;;;;;;3.83;2.13;;;;;;;22.71;62.14;98001.25;4947510;28;20233;-65
2023/07/15 06:01:19;;;;;;;3.33;2.20;;;;;;;23.01;59.65;97997.38;4963456;28;20237;-65
2023/07/15 06:03:45;;;;;;;3.13;2.00;;;;;;;23.31;58.98;98000.66;4965702;28;20236;-65
2023/07/15 06:06:13;;;;;;;2.27;1.77;;;;;;;23.51;59.60;98000.06;4963180;28;20238;-65
2023/07/15 06:08:39;;;;;;;2.73;2.13;;;;;;;23.70;59.14;97996.00;4952212;28;20273;-65
2023/07/15 06:11:06;;;;;;;3.37;2.03;;;;;;;23.86;59.54;97991.59;4944020;28;20295;-65
2023/07/15 06:13:33;;;;;;;2.13;1.80;;;;;;;23.99;58.72;97998.41;4946588;28;20232;-65
2023/07/15 06:16:01;;;;;;;3.03;1.97;;;;;;;24.16;56.09;97994.81;4958369;28;20308;-65
2023/07/15 06:18:28;;;;;;;3.80;2.00;;;;;;;24.33;56.38;98002.66;4946427;28;20297;-65
2023/07/15 06:20:54;;;;;;;2.33;2.00;;;;;;;24.63;51.32;97995.91;4933074;28;20234;-65
2023/07/15 06:23:21;;;;;;;3.37;1.87;;;;;;;24.86;53.24;98004.59;4946657;28;20303;-65
2023/07/15 06:25:47;;;;;;;5.43;2.10;;;;;;;25.15;53.30;97999.63;4946567;28;20241;-65
2023/07/15 06:28:14;;;;;;;4.43;2.20;;;;;;;25.34;53.10;98012.53;4943084;28;20253;-65
2023/07/15 06:30:40;;;;;;;3.73;1.90;;;;;;;25.58;52.61;98006.69;4936583;29;20408;-65
2023/07/15 06:33:08;;;;;;;3.20;1.90;;;;;;;25.86;52.64;98001.94;4943082;28;20240;-65
2023/07/15 06:35:35;;;;;;;2.80;1.70;;;;;;;26.09;50.99;98011.28;4945688;28;20596;-65
2023/07/15 06:38:01;;;;;;;3.60;2.22;;;;;;;26.44;48.87;98014.25;4943058;28;20242;-65
2023/07/15 06:40:28;;;;;;;3.40;1.97;;;;;;;26.86;45.09;98014.97;4946150;28;20701;-65
2023/07/15 06:42:59;;;;;;;3.33;2.00;;;;;;;27.28;39.96;98012.94;4942566;28;20369;-65
2023/07/15 06:45:33;;;;;;;3.07;1.97;;;;;;;27.68;39.65;98025.31;4945302;28;20244;-65
2023/07/15 06:48:00;;;;;;;2.85;2.33;;;;;;;28.04;37.55;98032.28;4943299;28;20264;-65
2023/07/15 06:50:28;;;;;;;3.60;1.70;;;;;;;28.09;37.26;98021.53;4945963;28;20247;-65
2023/07/15 06:52:59;;;;;;;3.67;2.67;;;;;;;28.01;42.97;98032.06;4942717;28;20237;-65
2023/07/15 06:55:26;;;;;;;5.97;2.63;;;;;;;27.50;44.94;98032.13;4946354;28;20240;-65
2023/07/15 06:57:52;;;;;;;2.85;2.38;;;;;;;27.18;46.23;98036.00;4946889;28;20239;-65
2023/07/15 07:00:19;;;;;;;3.22;2.20;;;;;;;26.88;48.29;98034.25;4947947;28;20229;-65
2023/07/15 07:02:45;;;;;;;3.05;2.28;;;;;;;26.48;47.74;98032.16;4963704;28;20248;-65
2023/07/15 07:05:12;;;;;;;6.88;2.53;;;;;;;26.31;50.02;98028.97;4946827;28;20567;-66
2023/07/15 07:07:40;;;;;;;3.03;2.70;;;;;;;26.04;49.34;98005.94;4950109;28;20252;-66
2023/07/15 07:10:08;;;;;;;4.87;2.40;;;;;;;25.95;50.98;98000.34;4947206;28;20235;-66
2023/07/15 07:12:34;;;;;;;2.33;2.13;;;;;;;26.02;52.74;97997.38;4950264;28;20243;-66
2023/07/15 07:15:01;;;;;;;3.30;1.92;;;;;;;26.17;52.38;98012.66;4947297;28;20237;-66
2023/07/15 07:17:29;;;;;;;8.85;2.35;;;;;;;26.09;51.68;98020.13;4948815;28;20238;-66
2023/07/15 07:19:56;;;;;;;4.03;2.47;;;;;;;26.23;51.71;98011.59;4946390;28;20236;-66
2023/07/15 07:22:23;;;;;;;5.30;2.92;;;;;;;26.39;51.00;98017.72;4949070;28;20240;-66
2023/07/15 07:24:52;;;;;;;4.93;2.60;;;;;;;26.48;52.14;98026.03;4949753;28;20243;-65
2023/07/15 07:27:18;;;;;;;4.55;2.47;;;;;;;26.47;52.99;98027.09;4949236;28;20278;-66
2023/07/15 07:29:45;;;;;;;8.25;2.60;;;;;;;26.54;53.32;98027.59;4969285;28;20239;-67
2023/07/15 07:32:12;;;;;;;12.13;2.85;;;;;;;26.48;51.51;98034.06;4954866;28;20362;-67
2023/07/15 07:34:39;;;;;;;8.55;3.08;;;;;;;26.59;50.68;98040.16;4967069;28;20240;-67
2023/07/15 07:37:06;;;;;;;4.63;2.70;;;;;;;26.71;51.48;98040.69;4946033;28;20711;-67
2023/07/15 07:39:32;;;;;;;6.70;2.65;;;;;;;26.67;52.26;98043.09;4949224;28;20236;-66
2023/07/15 07:42:00;;;;;;;6.97;3.10;;;;;;;26.66;50.69;98041.47;4945989;28;20244;-66
2023/07/15 07:44:27;;;;;;;5.93;2.70;;;;;;;26.67;52.88;98031.59;4947513;28;20231;-66
2023/07/15 07:46:53;;;;;;;4.65;2.65;;;;;;;26.69;53.59;98037.47;4946088;28;20321;-66
2023/07/15 07:49:20;;;;;;;7.15;3.10;;;;;;;26.87;52.15;98044.16;4947346;28;20232;-67
2023/07/15 07:51:46;;;;;;;3.95;2.70;;;;;;;27.27;52.18;98049.63;4949101;28;20239;-66
2023/07/15 07:54:13;;;;;;;5.63;2.80;;;;;;;27.47;49.96;98046.06;4945356;28;20251;-67
2023/07/15 07:56:39;;;;;;;3.75;2.72;;;;;;;27.60;50.59;98051.88;4963213;28;20295;-67
2023/07/15 07:59:07;;;;;;;4.22;2.25;;;;;;;27.74;49.90;98052.88;4965807;28;20277;-67
2023/07/15 08:01:34;;;;;;;4.25;3.08;;;;;;;27.80;49.82;98054.44;4967546;28;20339;-67
2023/07/15 08:04:01;;;;;;;4.50;2.80;;;;;;;27.98;48.22;98071.78;4968510;28;20600;-67
2023/07/15 08:06:28;;;;;;;8.63;3.00;;;;;;;27.72;48.17;98065.75;4967502;28;20236;-67
2023/07/15 08:08:55;;;;;;;4.60;2.50;;;;;;;27.54;49.55;98068.03;4964874;28;20231;-67
2023/07/15 08:11:22;;;;;;;3.47;2.92;;;;;;;27.79;48.99;98076.97;4966721;28;20229;-67
2023/07/15 08:13:48;;;;;;;3.58;3.03;;;;;;;28.20;47.59;98072.44;4968135;28;20232;-67
2023/07/15 08:16:39;;;;;;;7.07;2.80;;;;;;;28.28;47.07;98071.84;4965193;28;20233;-67
2023/07/15 08:19:07;;;;;;;3.22;2.90;;;;;;;28.39;47.11;98078.72;4958468;28;20357;-67
2023/07/15 08:21:34;;;;;;;5.30;3.08;;;;;;;28.96;45.15;98077.41;4966967;28;20706;-67
2023/07/15 08:24:01;;;;;;;4.65;2.90;;;;;;;28.97;45.83;98082.47;4956227;28;20656;-67
2023/07/15 08:26:28;;;;;;;4.15;2.80;;;;;;;28.99;44.91;98076.84;4967844;28;20240;-67
2023/07/15 08:28:55;;;;;;;5.88;2.97;;;;;;;28.73;46.17;98072.50;4948524;28;20230;-67
2023/07/15 08:31:22;;;;;;;5.63;3.13;;;;;;;28.86;45.09;98071.06;4948322;28;20249;-68
2023/07/15 08:33:50;;;;;;;7.20;2.78;;;;;;;29.04;45.08;98065.22;4953466;28;20222;-68
2023/07/15 08:36:16;;;;;;;6.50;2.95;;;;;;;28.95;45.42;98049.72;4964502;28;20230;-68
2023/07/15 08:38:43;;;;;;;6.55;2.97;;;;;;;28.95;45.88;98057.78;4968250;28;20607;-68
2023/07/15 08:41:11;;;;;;;5.38;3.22;;;;;;;29.10;46.49;98070.25;4964136;28;20238;-68
2023/07/15 08:43:37;;;;;;;3.67;2.97;;;;;;;29.25;45.33;98073.81;4967482;28;20226;-68
2023/07/15 08:46:11;;;;;;;5.47;3.00;;;;;;;29.33;44.29;98069.72;4963989;28;20218;-67
2023/07/15 08:48:38;;;;;;;6.13;2.97;;;;;;;29.16;43.99;98074.47;4966518;28;20229;-67
2023/07/15 08:51:06;;;;;;;3.72;2.83;;;;;;;29.12;44.92;98073.47;4963269;28;20237;-67
2023/07/15 08:53:33;;;;;;;3.60;2.92;;;;;;;28.93;44.07;98068.03;4961687;28;20258;-67
2023/07/15 08:56:01;;;;;;;4.20;2.72;;;;;;;28.48;45.16;98083.50;4963637;28;20225;-68
2023/07/15 08:58:28;;;;;;;4.60;3.30;;;;;;;28.03;45.75;98081.66;4960405;28;20630;-67
2023/07/15 09:00:55;;;;;;;4.53;3.00;;;;;;;27.72;48.84;98102.50;4964410;28;20283;-67
2023/07/15 09:03:22;;;;;;;5.47;3.10;;;;;;;27.56;48.94;98116.00;4966003;28;20704;-67
2023/07/15 09:05:49;;;;;;;4.93;3.17;;;;;;;27.26;50.64;98115.81;4967290;28;20694;-67
2023/07/15 09:08:17;;;;;;;4.75;3.30;;;;;;;27.22;51.00;98116.63;4964499;28;20240;-67
2023/07/15 09:10:53;;;;;;;5.30;3.20;;;;;;;27.00;52.09;98127.66;4967369;28;20236;-67
2023/07/15 09:13:25;;;;;;;8.38;3.22;;;;;;;26.90;52.92;98142.69;4963038;28;20243;-67
2023/07/15 09:15:51;;;;;;;4.72;3.17;;;;;;;26.94;52.11;98141.06;4966779;28;20316;-67
2023/07/15 09:18:18;;;;;;;3.33;3.03;;;;;;;27.18;51.89;98155.75;4962947;28;20235;-67
2023/07/15 09:20:46;;;;;;;11.50;3.53;;;;;;;27.48;51.69;98154.91;4951522;28;20249;-67
2023/07/15 09:23:13;;;;;;;4.85;2.97;;;;;;;27.68;51.49;98169.28;4944215;28;20256;-67
2023/07/15 09:25:49;;;;;;;6.93;2.97;;;;;;;28.07;50.26;98191.91;4947416;28;20225;-67
2023/07/15 09:28:15;;;;;;;4.90;3.28;;;;;;;28.17;48.94;98199.91;4944408;28;20251;-67
2023/07/15 09:30:42;;;;;;;3.50;2.65;;;;;;;28.59;48.86;98211.19;4962127;28;20230;-67
2023/07/15 09:33:09;;;;;;;4.53;2.80;;;;;;;28.81;49.33;98234.13;4953098;28;20236;-67
2023/07/15 09:35:36;;;;;;;4.80;3.20;;;;;;;28.63;48.21;98249.81;4966597;28;20942;-67
2023/07/15 09:38:03;;;;;;;6.47;3.20;;;;;;;28.52;48.16;98249.06;4963696;28;20241;-67
2023/07/15 09:40:43;;;;;;;5.53;3.20;;;;;;;28.73;47.99;98244.34;4966441;28;20323;-67
2023/07/15 09:43:09;;;;;;;5.15;3.20;;;;;;;29.27;47.49;98243.66;4963417;28;20964;-67
2023/07/15 09:45:37;;;;;;;8.55;3.92;;;;;;;29.52;46.71;98236.47;4960715;28;20833;-67
2023/07/15 09:48:05;;;;;;;5.22;3.20;;;;;;;30.22;46.51;98228.91;4960816;28;20234;-67
2023/07/15 09:50:33;;;;;;;4.25;3.13;;;;;;;30.53;46.48;98215.00;4966528;28;20260;-67
2023/07/15 09:53:01;;;;;;;6.18;3.20;;;;;;;30.91;44.03;98220.34;4963321;28;20312;-67
2023/07/15 09:55:28;;;;;;;6.80;3.42;;;;;;;30.54;42.67;98213.94;4966467;28;20321;-67
2023/07/15 09:58:09;;;;;;;3.00;2.70;;;;;;;30.82;39.76;98209.44;4963074;28;20621;-67
2023/07/15 10:00:40;;;;;;;5.25;3.35;;;;;;;30.50;40.65;98211.00;4965578;28;20222;-67
2023/07/15 10:03:08;;;;;;;5.82;3.00;;;;;;;30.44;41.29;98207.59;4953171;28;20246;-67
2023/07/15 10:05:35;;;;;;;3.80;3.03;;;;;;;30.27;40.93;98207.31;4947522;28;20238;-67
2023/07/15 10:08:02;;;;;;;4.97;2.92;;;;;;;30.01;41.76;98186.94;4944649;28;20234;-67
2023/07/15 10:10:28;;;;;;;5.13;3.30;;;;;;;29.71;41.96;98182.72;4951508;28;20225;-67
2023/07/15 10:13:02;;;;;;;5.55;3.28;;;;;;;29.63;42.94;98184.16;4962057;28;20249;-67
2023/07/15 10:15:28;;;;;;;4.10;2.90;;;;;;;29.52;43.21;98205.00;4953448;28;20241;-67
2023/07/15 10:18:11;;;;;;;6.85;3.72;;;;;;;29.55;42.76;98209.00;4943032;28;20230;-67
2023/07/15 10:20:42;;;;;;;5.20;3.33;;;;;;;30.00;42.17;98206.06;4947048;28;20600;-67
2023/07/15 10:23:10;;;;;;;4.43;3.20;;;;;;;30.36;41.71;98191.28;4942956;28;20242;-67
2023/07/15 10:25:36;;;;;;;3.30;2.60;;;;;;;30.55;39.21;98183.22;4952368;28;20803;-67
2023/07/15 10:28:15;;;;;;;4.05;3.45;;;;;;;30.94;37.64;98176.63;4963302;28;20230;-67
2023/07/15 10:31:06;;;;;;;5.32;2.80;;;;;;;31.21;37.59;98183.19;4964653;28;20252;-67
2023/07/15 10:33:35;;;;;;;5.97;3.17;;;;;;;31.09;36.46;98172.88;4959224;28;20699;-67
2023/07/15 10:36:04;;;;;;;5.28;3.10;;;;;;;31.19;37.89;98167.34;4963023;28;20264;-67
2023/07/15 10:38:32;;;;;;;4.32;2.92;;;;;;;31.00;37.19;98170.06;4964814;28;20277;-67
2023/07/15 10:41:02;;;;;;;4.13;2.92;;;;;;;30.60;38.36;98157.00;4963237;28;20237;-67
2023/07/15 10:43:42;;;;;;;4.45;2.75;;;;;;;30.85;38.23;98151.47;4965729;28;20236;-67
2023/07/15 10:46:09;;;;;;;8.18;2.97;;;;;;;30.82;38.44;98150.19;4963128;28;20236;-67
2023/07/15 10:48:37;;;;;;;7.40;2.88;;;;;;;31.25;36.69;98149.16;4964603;28;20229;-67
2023/07/15 10:51:05;;;;;;;7.00;3.10;;;;;;;31.19;38.45;98139.56;4945521;28;20643;-68
2023/07/15 10:53:32;;;;;;;3.10;2.65;;;;;;;31.56;38.42;98142.34;4945642;28;20230;-67
2023/07/15 10:56:00;;;;;;;3.65;3.00;;;;;;;31.66;37.46;98131.34;4952302;28;20236;-67
2023/07/15 10:58:28;;;;;;;4.13;2.92;;;;;;;31.74;36.85;98127.16;4965636;28;20583;-67
2023/07/15 11:01:00;;;;;;;2.80;2.60;;;;;;;32.07;36.34;98119.66;4962497;28;20579;-67
2023/07/15 11:03:28;;;;;;;3.47;2.85;;;;;;;31.90;36.25;98108.72;4956705;28;20241;-67
2023/07/15 11:05:57;;;;;;;3.53;2.53;;;;;;;31.94;34.37;98098.91;4962821;28;20233;-67
2023/07/15 11:08:24;;;;;;;4.38;2.67;;;;;;;31.48;35.33;98095.31;4965605;28;20261;-67
2023/07/15 11:10:56;;;;;;;4.57;2.88;;;;;;;31.26;36.03;98096.81;4950196;28;20226;-67
2023/07/15 11:13:23;;;;;;;3.95;2.78;;;;;;;30.95;37.45;98092.00;4943231;28;20234;-67
2023/07/15 11:15:49;;;;;;;3.78;2.67;;;;;;;30.98;39.60;98093.31;4946301;28;20309;-67
2023/07/15 11:18:18;;;;;;;3.30;3.00;;;;;;;31.12;38.29;98099.50;4941949;28;20297;-67
2023/07/15 11:20:46;;;;;;;4.55;2.75;;;;;;;31.17;38.52;98104.03;4946046;28;20234;-67
2023/07/15 11:23:13;;;;;;;3.80;2.92;;;;;;;31.41;36.54;98101.09;4929512;28;20245;-67
2023/07/15 11:25:40;;;;;;;3.20;2.58;;;;;;;31.62;35.54;98098.78;4946026;28;20234;-67
2023/07/15 11:28:07;;;;;;;4.57;3.13;;;;;;;31.83;34.85;98094.84;4952709;28;20253;-67
2023/07/15 11:30:34;;;;;;;6.65;3.30;;;;;;;32.09;35.26;98089.66;4980139;28;20221;-67
2023/07/15 11:33:02;;;;;;;4.55;3.00;;;;;;;32.62;35.39;98084.59;4944368;28;20242;-67
2023/07/15 11:35:33;;;;;;;3.30;2.80;;;;;;;32.91;34.27;98081.41;4965556;28;20288;-67
2023/07/15 11:38:00;;;;;;;4.53;2.63;;;;;;;32.93;32.75;98072.97;4962687;28;20226;-67